Have a Safe July 4th! 

Flight Track Log - Related Links

Times and Time Zones

All times are in EDT time to prevent confusion due to time zone crossing. See the BJS439 flight status page for this flight to view local times or setup timezone preferences in your user account.

Time Position Orientation Groundspeed Altitude Reporting Facility
EDT Latitude Longitude Course Direction KTS MPH feet Rate Location/Type
Fri 01:34:19 PM 36.0525 -79.8081 50° Northeast 344 396 8,000  Level Washington Center
Fri 01:35:19 PM 36.1183 -79.7217 47° Northeast 353 406 10,800 2,450 Climbing Washington Center
Fri 01:36:19 PM 36.1858 -79.6350 46° Northeast 372 428 12,900 3,250 Climbing Washington Center
Fri 01:37:00 PM 36.2617 -79.5600 58° Northeast  Level FlightAware Approximate
Fri 01:37:19 PM 36.2731 -79.5183 47° Northeast 405 466 17,300  Level Washington Center
Fri 01:38:00 PM 36.3170 -79.4660 58° Northeast  Level FlightAware Approximate
Fri 01:38:19 PM 36.3458 -79.3983 53° Northeast 422 486 19,000  Level Washington Center
Fri 01:39:00 PM 36.3740 -79.3723 50° Northeast  Level FlightAware Approximate
Fri 01:39:19 PM 36.3336 -79.2583 96° East 383 441 19,000  Level Washington Center
Fri 01:40:19 PM 36.3003 -79.1203 107° East 383 441 19,000  Level Washington Center
Fri 01:41:19 PM 36.2753 -78.9697 102° East 412 474 19,000  Level Washington Center
Fri 01:42:19 PM 36.3067 -78.8189 75° East 436 502 19,000  Level Washington Center
Fri 01:43:19 PM 36.3419 -78.6708 73° East 436 502 19,000  Level Washington Center
Fri 01:44:19 PM 36.3747 -78.5278 74° East 436 502 19,000 -500 Level Washington Center
Fri 01:45:19 PM 36.4072 -78.3819 74° East 436 502 18,000 -1,100 Descending Washington Center
Fri 01:46:19 PM 36.4350 -78.2667 73° East 431 496 16,800 -1,450 Descending Washington Center
Fri 01:47:19 PM 36.4719 -78.1078 74° East 431 496 15,100 -1,350 Descending Washington Center
Fri 01:48:19 PM 36.5039 -77.9667 74° East 426 490 14,100 -1,050 Descending Washington Center
Fri 01:49:19 PM 36.5336 -77.8281 75° East 419 482 13,000 -600 Descending Washington Center
Fri 01:50:19 PM 36.5633 -77.6917 75° East 412 474 12,900 -50 Descending Washington Center
Fri 01:51:19 PM 36.5950 -77.5531 74° East 412 474 12,900 -250 Level Washington Center
Fri 01:52:19 PM 36.6261 -77.4167 74° East 412 474 12,400 -857 Descending Washington Center
Fri 01:53:18 PM 36.6575 -77.2722 75° East 411 473 11,200 -636 Descending Washington Center
Fri 01:54:31 PM 36.6931 -77.1072 75° East 397 457 11,000 -298 Descending Washington Center
Fri 01:56:19 PM 36.6917 -76.8689 90° East 383 441 10,300 -617 Descending Washington Center
Fri 01:57:26 PM 36.6700 -76.7469 102° East 309 356 9,200 -1,050 Descending Washington Center
Fri 01:58:19 PM 36.6853 -76.6592 78° East 339 390 8,200 -1,168 Descending Washington Center
Fri 01:59:19 PM 36.7094 -76.5428 75° East 319 367 7,000 -1,147 Descending Washington Center
Fri 02:00:35 PM 36.7353 -76.4083 76° East 313 360 5,600 -1,050 Descending Washington Center
Fri 02:01:19 PM 36.7525 -76.3333 74° East 309 356 4,900 -600 Descending Washington Center
Fri 02:01:35 PM 36.7569 -76.3075 78° East 304 350 5,000  Climbing Washington Center
Fri 02:02:19 PM 36.7781 -76.2350 70° East 303 349 4,900  Descending Washington Center
Fri 02:02:42 PM 36.8033 -76.2119 36° Northeast 296 341 5,000 -361 Climbing Washington Center
Fri 02:03:42 PM 36.8600 -76.1500 41° Northeast 253 291 4,400 -1,211 Descending Washington Center
Fri 02:04:31 PM 36.9061 -76.1061 37° Northeast 254 292 2,800 -1,357 Descending Washington Center
Fri 02:05:37 PM 36.9517 -76.1300 337° Northwest 157 181 1,800 -909 Descending Washington Center

Login

Don't have an account? Register now (free) for customized features, flight alerts, and more!